sensor_id;sensor_type;location;lat;lon;timestamp;temperature;humidity
19928;DHT22;10126;50.876;4.470;2023-02-28T00:01:52;0.80;99.90
19928;DHT22;10126;50.876;4.470;2023-02-28T00:03:53;0.90;99.90
19928;DHT22;10126;50.876;4.470;2023-02-28T00:05:53;0.80;99.90
19928;DHT22;10126;50.876;4.470;2023-02-28T00:07:55;1.00;99.90
19928;DHT22;10126;50.876;4.470;2023-02-28T00:09:55;1.00;99.90
19928;DHT22;10126;50.876;4.470;2023-02-28T00:11:56;0.90;99.90
19928;DHT22;10126;50.876;4.470;2023-02-28T00:13:57;1.00;99.90
19928;DHT22;10126;50.876;4.470;2023-02-28T00:16:02;0.70;99.90
19928;DHT22;10126;50.876;4.470;2023-02-28T00:18:03;0.50;99.90
19928;DHT22;10126;50.876;4.470;2023-02-28T00:20:05;0.50;99.90
19928;DHT22;10126;50.876;4.470;2023-02-28T00:22:12;0.40;99.90
19928;DHT22;10126;50.876;4.470;2023-02-28T00:24:13;0.50;99.90
19928;DHT22;10126;50.876;4.470;2023-02-28T00:26:13;0.60;99.90
19928;DHT22;10126;50.876;4.470;2023-02-28T00:28:14;0.60;99.90
19928;DHT22;10126;50.876;4.470;2023-02-28T00:30:17;0.70;99.90
19928;DHT22;10126;50.876;4.470;2023-02-28T00:32:18;0.50;99.90
19928;DHT22;10126;50.876;4.470;2023-02-28T00:34:19;0.60;99.90
19928;DHT22;10126;50.876;4.470;2023-02-28T00:36:20;0.70;99.90
19928;DHT22;10126;50.876;4.470;2023-02-28T00:38:21;0.70;99.90
19928;DHT22;10126;50.876;4.470;2023-02-28T00:40:21;0.60;99.90
19928;DHT22;10126;50.876;4.470;2023-02-28T00:42:22;0.80;99.90
19928;DHT22;10126;50.876;4.470;2023-02-28T00:44:23;0.70;99.90
19928;DHT22;10126;50.876;4.470;2023-02-28T00:46:24;0.70;99.90
19928;DHT22;10126;50.876;4.470;2023-02-28T00:48:24;0.60;99.90
19928;DHT22;10126;50.876;4.470;2023-02-28T00:50:25;0.60;99.90
19928;DHT22;10126;50.876;4.470;2023-02-28T00:52:25;0.70;99.90
19928;DHT22;10126;50.876;4.470;2023-02-28T00:54:26;0.50;99.90
19928;DHT22;10126;50.876;4.470;2023-02-28T00:56:27;0.60;99.90
19928;DHT22;10126;50.876;4.470;2023-02-28T00:58:28;0.60;99.90
19928;DHT22;10126;50.876;4.470;2023-02-28T01:00:28;0.90;99.90
19928;DHT22;10126;50.876;4.470;2023-02-28T01:02:29;1.10;99.90
19928;DHT22;10126;50.876;4.470;2023-02-28T01:04:30;1.10;99.90
19928;DHT22;10126;50.876;4.470;2023-02-28T01:06:31;1.20;99.90
19928;DHT22;10126;50.876;4.470;2023-02-28T01:08:32;1.30;99.90
19928;DHT22;10126;50.876;4.470;2023-02-28T01:10:32;1.20;99.90
19928;DHT22;10126;50.876;4.470;2023-02-28T01:12:34;0.80;99.90
19928;DHT22;10126;50.876;4.470;2023-02-28T01:14:34;0.60;99.90
19928;DHT22;10126;50.876;4.470;2023-02-28T01:16:35;0.60;99.90
19928;DHT22;10126;50.876;4.470;2023-02-28T01:18:37;0.30;99.90
19928;DHT22;10126;50.876;4.470;2023-02-28T01:20:38;0.40;99.90
19928;DHT22;10126;50.876;4.470;2023-02-28T01:22:38;0.30;99.90
19928;DHT22;10126;50.876;4.470;2023-02-28T01:24:39;0.30;99.90
19928;DHT22;10126;50.876;4.470;2023-02-28T01:26:40;0.20;99.90
19928;DHT22;10126;50.876;4.470;2023-02-28T01:28:41;0.00;99.90
19928;DHT22;10126;50.876;4.470;2023-02-28T01:30:42;-0.10;99.90
19928;DHT22;10126;50.876;4.470;2023-02-28T01:32:42;-0.30;99.90
19928;DHT22;10126;50.876;4.470;2023-02-28T01:34:43;-0.30;99.90
19928;DHT22;10126;50.876;4.470;2023-02-28T01:36:43;-0.30;99.90
19928;DHT22;10126;50.876;4.470;2023-02-28T01:38:45;-0.10;99.90
19928;DHT22;10126;50.876;4.470;2023-02-28T01:40:46;0.00;99.90
19928;DHT22;10126;50.876;4.470;2023-02-28T01:42:46;0.00;99.90
19928;DHT22;10126;50.876;4.470;2023-02-28T01:46:57;0.10;99.90
19928;DHT22;10126;50.876;4.470;2023-02-28T01:49:15;0.40;99.90
19928;DHT22;10126;50.876;4.470;2023-02-28T01:51:49;0.20;99.90
19928;DHT22;10126;50.876;4.470;2023-02-28T01:54:01;0.20;99.90
19928;DHT22;10126;50.876;4.470;2023-02-28T01:56:05;0.30;99.90
19928;DHT22;10126;50.876;4.470;2023-02-28T01:58:07;0.50;99.90
19928;DHT22;10126;50.876;4.470;2023-02-28T02:00:15;0.60;99.90
19928;DHT22;10126;50.876;4.470;2023-02-28T02:02:18;0.60;99.90
19928;DHT22;10126;50.876;4.470;2023-02-28T02:04:19;0.40;99.90
19928;DHT22;10126;50.876;4.470;2023-02-28T02:06:31;0.40;99.90
19928;DHT22;10126;50.876;4.470;2023-02-28T02:08:34;0.20;99.90
19928;DHT22;10126;50.876;4.470;2023-02-28T02:10:39;0.30;99.90
19928;DHT22;10126;50.876;4.470;2023-02-28T02:17:24;0.00;99.90
19928;DHT22;10126;50.876;4.470;2023-02-28T02:27:38;0.30;99.90
19928;DHT22;10126;50.876;4.470;2023-02-28T02:41:14;0.40;99.90
19928;DHT22;10126;50.876;4.470;2023-02-28T02:43:22;0.50;99.90
19928;DHT22;10126;50.876;4.470;2023-02-28T02:45:32;0.50;99.90
19928;DHT22;10126;50.876;4.470;2023-02-28T02:47:37;0.60;99.90
19928;DHT22;10126;50.876;4.470;2023-02-28T02:49:41;0.40;99.90
19928;DHT22;10126;50.876;4.470;2023-02-28T02:51:43;0.30;99.90
19928;DHT22;10126;50.876;4.470;2023-02-28T02:53:57;0.00;99.90
19928;DHT22;10126;50.876;4.470;2023-02-28T02:56:02;-0.10;99.90
19928;DHT22;10126;50.876;4.470;2023-02-28T02:58:07;-0.10;99.90
19928;DHT22;10126;50.876;4.470;2023-02-28T03:00:09;-0.30;99.90
19928;DHT22;10126;50.876;4.470;2023-02-28T03:02:12;-0.30;99.90
19928;DHT22;10126;50.876;4.470;2023-02-28T03:04:20;-0.30;99.90
19928;DHT22;10126;50.876;4.470;2023-02-28T03:06:21;-0.20;99.90
19928;DHT22;10126;50.876;4.470;2023-02-28T03:08:22;-0.30;99.90
19928;DHT22;10126;50.876;4.470;2023-02-28T03:10:43;-0.50;99.90
19928;DHT22;10126;50.876;4.470;2023-02-28T03:13:24;-0.50;99.90
19928;DHT22;10126;50.876;4.470;2023-02-28T03:22:05;-0.20;99.90
19928;DHT22;10126;50.876;4.470;2023-02-28T03:23:56;-0.10;99.90
19928;DHT22;10126;50.876;4.470;2023-02-28T03:26:04;-0.40;99.90
19928;DHT22;10126;50.876;4.470;2023-02-28T03:32:56;-0.80;99.90
19928;DHT22;10126;50.876;4.470;2023-02-28T03:35:19;-0.70;99.90
19928;DHT22;10126;50.876;4.470;2023-02-28T03:37:24;-0.70;99.90
19928;DHT22;10126;50.876;4.470;2023-02-28T03:39:39;-0.50;99.90
19928;DHT22;10126;50.876;4.470;2023-02-28T03:44:02;-0.40;99.90
19928;DHT22;10126;50.876;4.470;2023-02-28T03:46:09;-0.20;99.90
19928;DHT22;10126;50.876;4.470;2023-02-28T03:48:23;-0.20;99.90
19928;DHT22;10126;50.876;4.470;2023-02-28T03:50:47;-0.10;99.90
19928;DHT22;10126;50.876;4.470;2023-02-28T03:52:58;-0.10;99.90
19928;DHT22;10126;50.876;4.470;2023-02-28T03:55:09;-0.10;99.90
19928;DHT22;10126;50.876;4.470;2023-02-28T03:59:26;-0.50;99.90
19928;DHT22;10126;50.876;4.470;2023-02-28T04:01:35;-0.40;99.90
19928;DHT22;10126;50.876;4.470;2023-02-28T04:03:38;-0.50;99.90
19928;DHT22;10126;50.876;4.470;2023-02-28T04:05:53;-0.40;99.90
19928;DHT22;10126;50.876;4.470;2023-02-28T04:07:54;-0.30;99.90
19928;DHT22;10126;50.876;4.470;2023-02-28T04:09:55;0.00;99.90
19928;DHT22;10126;50.876;4.470;2023-02-28T04:11:56;0.20;99.90
19928;DHT22;10126;50.876;4.470;2023-02-28T04:13:56;0.00;99.90
19928;DHT22;10126;50.876;4.470;2023-02-28T04:15:57;-0.10;99.90
19928;DHT22;10126;50.876;4.470;2023-02-28T04:17:58;-0.50;99.90
19928;DHT22;10126;50.876;4.470;2023-02-28T04:19:58;-0.70;99.90
19928;DHT22;10126;50.876;4.470;2023-02-28T04:21:59;-0.90;99.90
19928;DHT22;10126;50.876;4.470;2023-02-28T04:24:00;-0.90;99.90
19928;DHT22;10126;50.876;4.470;2023-02-28T04:26:01;-1.00;99.90
19928;DHT22;10126;50.876;4.470;2023-02-28T04:28:01;-0.90;99.90
19928;DHT22;10126;50.876;4.470;2023-02-28T04:30:02;-0.90;99.90
19928;DHT22;10126;50.876;4.470;2023-02-28T04:32:03;-0.50;99.90
19928;DHT22;10126;50.876;4.470;2023-02-28T04:34:04;-0.50;99.90
19928;DHT22;10126;50.876;4.470;2023-02-28T04:36:07;-0.30;99.90
19928;DHT22;10126;50.876;4.470;2023-02-28T04:38:08;-0.10;99.90
19928;DHT22;10126;50.876;4.470;2023-02-28T04:40:09;-0.20;99.90
19928;DHT22;10126;50.876;4.470;2023-02-28T04:42:11;-0.20;99.90
19928;DHT22;10126;50.876;4.470;2023-02-28T04:44:12;-0.10;99.90
19928;DHT22;10126;50.876;4.470;2023-02-28T04:46:13;0.00;99.90
19928;DHT22;10126;50.876;4.470;2023-02-28T04:48:13;-0.20;99.90
19928;DHT22;10126;50.876;4.470;2023-02-28T04:50:14;-0.30;99.90
19928;DHT22;10126;50.876;4.470;2023-02-28T04:52:15;-0.40;99.90
19928;DHT22;10126;50.876;4.470;2023-02-28T04:54:18;-0.60;99.90
19928;DHT22;10126;50.876;4.470;2023-02-28T04:56:19;-0.70;99.90
19928;DHT22;10126;50.876;4.470;2023-02-28T04:58:19;-0.60;99.90
19928;DHT22;10126;50.876;4.470;2023-02-28T05:00:23;-0.90;99.90
19928;DHT22;10126;50.876;4.470;2023-02-28T05:02:24;-1.00;99.90
19928;DHT22;10126;50.876;4.470;2023-02-28T05:04:24;-0.90;99.90
19928;DHT22;10126;50.876;4.470;2023-02-28T05:06:27;-0.60;99.90
19928;DHT22;10126;50.876;4.470;2023-02-28T05:08:28;-0.20;99.90
19928;DHT22;10126;50.876;4.470;2023-02-28T05:10:30;-0.10;99.90
19928;DHT22;10126;50.876;4.470;2023-02-28T05:12:31;-0.30;99.90
19928;DHT22;10126;50.876;4.470;2023-02-28T05:14:32;-0.30;99.90
19928;DHT22;10126;50.876;4.470;2023-02-28T05:16:32;-0.30;99.90
19928;DHT22;10126;50.876;4.470;2023-02-28T05:18:33;0.00;99.90
19928;DHT22;10126;50.876;4.470;2023-02-28T05:20:34;-0.10;99.90
19928;DHT22;10126;50.876;4.470;2023-02-28T05:22:34;0.00;99.90
19928;DHT22;10126;50.876;4.470;2023-02-28T05:24:35;0.20;99.90
19928;DHT22;10126;50.876;4.470;2023-02-28T05:26:37;0.30;99.90
19928;DHT22;10126;50.876;4.470;2023-02-28T05:28:38;0.50;99.90
19928;DHT22;10126;50.876;4.470;2023-02-28T05:30:39;0.70;99.90
19928;DHT22;10126;50.876;4.470;2023-02-28T05:32:40;0.80;99.90
19928;DHT22;10126;50.876;4.470;2023-02-28T05:34:44;0.90;99.90
19928;DHT22;10126;50.876;4.470;2023-02-28T05:36:45;0.60;99.90
19928;DHT22;10126;50.876;4.470;2023-02-28T05:39:06;0.70;99.90
19928;DHT22;10126;50.876;4.470;2023-02-28T05:41:11;0.90;99.90
19928;DHT22;10126;50.876;4.470;2023-02-28T05:43:11;0.70;99.90
19928;DHT22;10126;50.876;4.470;2023-02-28T05:45:15;0.80;99.90
19928;DHT22;10126;50.876;4.470;2023-02-28T05:47:16;0.50;99.90
19928;DHT22;10126;50.876;4.470;2023-02-28T05:49:17;0.40;99.90
19928;DHT22;10126;50.876;4.470;2023-02-28T05:51:18;0.40;99.90
19928;DHT22;10126;50.876;4.470;2023-02-28T05:53:18;0.40;99.90
19928;DHT22;10126;50.876;4.470;2023-02-28T05:55:39;0.60;99.90
19928;DHT22;10126;50.876;4.470;2023-02-28T05:57:41;0.80;99.90
19928;DHT22;10126;50.876;4.470;2023-02-28T05:59:42;0.80;99.90
19928;DHT22;10126;50.876;4.470;2023-02-28T06:01:45;0.50;99.90
19928;DHT22;10126;50.876;4.470;2023-02-28T06:03:48;0.40;99.90
19928;DHT22;10126;50.876;4.470;2023-02-28T06:05:49;0.30;99.90
19928;DHT22;10126;50.876;4.470;2023-02-28T06:07:50;0.20;99.90
19928;DHT22;10126;50.876;4.470;2023-02-28T06:09:51;0.40;99.90
19928;DHT22;10126;50.876;4.470;2023-02-28T06:11:52;0.30;99.90
19928;DHT22;10126;50.876;4.470;2023-02-28T06:14:01;0.20;99.90
19928;DHT22;10126;50.876;4.470;2023-02-28T06:16:02;0.10;99.90
19928;DHT22;10126;50.876;4.470;2023-02-28T06:18:03;0.00;99.90
19928;DHT22;10126;50.876;4.470;2023-02-28T06:20:05;0.00;99.90
19928;DHT22;10126;50.876;4.470;2023-02-28T06:22:05;0.10;99.90
19928;DHT22;10126;50.876;4.470;2023-02-28T06:24:06;0.00;99.90
19928;DHT22;10126;50.876;4.470;2023-02-28T06:26:07;0.10;99.90
19928;DHT22;10126;50.876;4.470;2023-02-28T06:28:08;0.10;99.90
19928;DHT22;10126;50.876;4.470;2023-02-28T06:30:10;0.10;99.90
19928;DHT22;10126;50.876;4.470;2023-02-28T06:32:11;0.10;99.90
19928;DHT22;10126;50.876;4.470;2023-02-28T06:34:12;0.30;99.90
19928;DHT22;10126;50.876;4.470;2023-02-28T06:36:14;0.30;99.90
19928;DHT22;10126;50.876;4.470;2023-02-28T06:38:15;0.20;99.90
19928;DHT22;10126;50.876;4.470;2023-02-28T06:40:16;0.20;99.90
19928;DHT22;10126;50.876;4.470;2023-02-28T06:42:16;0.30;99.90
19928;DHT22;10126;50.876;4.470;2023-02-28T06:44:18;0.30;99.90
19928;DHT22;10126;50.876;4.470;2023-02-28T06:46:19;0.40;99.90
19928;DHT22;10126;50.876;4.470;2023-02-28T06:48:20;0.50;99.90
19928;DHT22;10126;50.876;4.470;2023-02-28T06:50:20;0.60;99.90
19928;DHT22;10126;50.876;4.470;2023-02-28T06:52:21;0.70;99.90
19928;DHT22;10126;50.876;4.470;2023-02-28T06:54:22;0.80;99.90
19928;DHT22;10126;50.876;4.470;2023-02-28T06:56:23;0.60;99.90
19928;DHT22;10126;50.876;4.470;2023-02-28T06:58:23;0.80;99.90
19928;DHT22;10126;50.876;4.470;2023-02-28T07:00:24;0.80;99.90
19928;DHT22;10126;50.876;4.470;2023-02-28T07:02:26;1.40;99.90
19928;DHT22;10126;50.876;4.470;2023-02-28T07:04:26;2.10;99.90
19928;DHT22;10126;50.876;4.470;2023-02-28T07:06:28;2.80;99.90
19928;DHT22;10126;50.876;4.470;2023-02-28T07:08:29;3.30;99.90
19928;DHT22;10126;50.876;4.470;2023-02-28T07:10:30;3.90;99.90
19928;DHT22;10126;50.876;4.470;2023-02-28T07:12:30;4.40;99.90
19928;DHT22;10126;50.876;4.470;2023-02-28T07:14:31;4.90;99.90
19928;DHT22;10126;50.876;4.470;2023-02-28T07:16:32;5.60;99.90
19928;DHT22;10126;50.876;4.470;2023-02-28T07:18:33;5.90;99.90
19928;DHT22;10126;50.876;4.470;2023-02-28T07:20:34;6.20;99.90
19928;DHT22;10126;50.876;4.470;2023-02-28T07:22:34;6.00;99.90
19928;DHT22;10126;50.876;4.470;2023-02-28T07:24:35;5.40;99.90
19928;DHT22;10126;50.876;4.470;2023-02-28T07:26:36;4.90;99.90
19928;DHT22;10126;50.876;4.470;2023-02-28T07:28:36;5.00;99.90
19928;DHT22;10126;50.876;4.470;2023-02-28T07:30:38;5.50;99.90
19928;DHT22;10126;50.876;4.470;2023-02-28T07:32:39;6.70;99.90
19928;DHT22;10126;50.876;4.470;2023-02-28T07:34:39;7.20;99.90
19928;DHT22;10126;50.876;4.470;2023-02-28T07:36:40;7.80;99.90
19928;DHT22;10126;50.876;4.470;2023-02-28T07:38:45;8.00;99.90
19928;DHT22;10126;50.876;4.470;2023-02-28T07:40:48;7.90;99.90
19928;DHT22;10126;50.876;4.470;2023-02-28T07:42:49;8.00;99.90
19928;DHT22;10126;50.876;4.470;2023-02-28T07:44:49;7.70;99.90
19928;DHT22;10126;50.876;4.470;2023-02-28T07:46:51;7.70;99.90
19928;DHT22;10126;50.876;4.470;2023-02-28T07:48:53;8.00;99.90
19928;DHT22;10126;50.876;4.470;2023-02-28T07:50:56;7.50;99.90
19928;DHT22;10126;50.876;4.470;2023-02-28T07:52:58;7.30;99.90
19928;DHT22;10126;50.876;4.470;2023-02-28T07:54:59;7.60;99.90
19928;DHT22;10126;50.876;4.470;2023-02-28T07:56:59;8.00;99.90
19928;DHT22;10126;50.876;4.470;2023-02-28T07:59:00;7.90;99.90
19928;DHT22;10126;50.876;4.470;2023-02-28T08:01:09;7.70;99.90
19928;DHT22;10126;50.876;4.470;2023-02-28T08:03:13;7.70;99.90
19928;DHT22;10126;50.876;4.470;2023-02-28T08:05:14;7.90;99.90
19928;DHT22;10126;50.876;4.470;2023-02-28T08:07:16;7.10;99.90
19928;DHT22;10126;50.876;4.470;2023-02-28T08:09:16;6.60;99.90
19928;DHT22;10126;50.876;4.470;2023-02-28T08:11:17;6.50;99.90
19928;DHT22;10126;50.876;4.470;2023-02-28T08:13:17;6.30;99.90
19928;DHT22;10126;50.876;4.470;2023-02-28T08:15:18;5.60;99.90
19928;DHT22;10126;50.876;4.470;2023-02-28T08:17:19;5.10;99.90
19928;DHT22;10126;50.876;4.470;2023-02-28T08:19:19;5.10;99.90
19928;DHT22;10126;50.876;4.470;2023-02-28T08:21:21;5.00;99.90
19928;DHT22;10126;50.876;4.470;2023-02-28T08:23:21;5.00;99.90
19928;DHT22;10126;50.876;4.470;2023-02-28T08:25:22;5.10;99.90
19928;DHT22;10126;50.876;4.470;2023-02-28T08:27:23;5.00;99.90
19928;DHT22;10126;50.876;4.470;2023-02-28T08:29:23;4.80;99.90
19928;DHT22;10126;50.876;4.470;2023-02-28T08:31:24;4.80;99.90
19928;DHT22;10126;50.876;4.470;2023-02-28T08:33:25;4.10;99.90
19928;DHT22;10126;50.876;4.470;2023-02-28T08:35:26;4.00;99.90
19928;DHT22;10126;50.876;4.470;2023-02-28T08:37:27;3.80;99.90
19928;DHT22;10126;50.876;4.470;2023-02-28T08:39:28;3.80;99.90
19928;DHT22;10126;50.876;4.470;2023-02-28T08:41:28;3.60;99.90
19928;DHT22;10126;50.876;4.470;2023-02-28T08:43:29;3.70;99.90
19928;DHT22;10126;50.876;4.470;2023-02-28T08:45:30;3.80;99.90
19928;DHT22;10126;50.876;4.470;2023-02-28T08:47:31;3.90;99.90
19928;DHT22;10126;50.876;4.470;2023-02-28T08:49:32;3.50;99.90
19928;DHT22;10126;50.876;4.470;2023-02-28T08:51:33;3.70;99.90
19928;DHT22;10126;50.876;4.470;2023-02-28T08:53:37;3.60;99.90
19928;DHT22;10126;50.876;4.470;2023-02-28T08:55:38;3.40;99.90
19928;DHT22;10126;50.876;4.470;2023-02-28T08:57:39;3.40;99.90
19928;DHT22;10126;50.876;4.470;2023-02-28T08:59:40;3.60;99.90
19928;DHT22;10126;50.876;4.470;2023-02-28T09:01:40;3.90;99.90
19928;DHT22;10126;50.876;4.470;2023-02-28T09:03:44;4.10;99.90
19928;DHT22;10126;50.876;4.470;2023-02-28T09:05:57;4.00;99.90
19928;DHT22;10126;50.876;4.470;2023-02-28T09:07:58;3.80;99.90
19928;DHT22;10126;50.876;4.470;2023-02-28T09:09:59;3.70;99.90
19928;DHT22;10126;50.876;4.470;2023-02-28T09:11:59;3.90;99.90
19928;DHT22;10126;50.876;4.470;2023-02-28T09:14:00;3.70;99.90
19928;DHT22;10126;50.876;4.470;2023-02-28T09:16:05;3.90;99.90
19928;DHT22;10126;50.876;4.470;2023-02-28T09:18:06;3.70;99.90
19928;DHT22;10126;50.876;4.470;2023-02-28T09:20:07;3.40;99.90
19928;DHT22;10126;50.876;4.470;2023-02-28T09:22:09;3.50;99.90
19928;DHT22;10126;50.876;4.470;2023-02-28T09:24:09;3.50;99.90
19928;DHT22;10126;50.876;4.470;2023-02-28T09:26:17;3.70;99.90
19928;DHT22;10126;50.876;4.470;2023-02-28T09:28:19;3.80;99.90
19928;DHT22;10126;50.876;4.470;2023-02-28T09:30:20;3.90;99.90
19928;DHT22;10126;50.876;4.470;2023-02-28T09:32:21;4.10;99.90
19928;DHT22;10126;50.876;4.470;2023-02-28T09:34:21;4.20;99.90
19928;DHT22;10126;50.876;4.470;2023-02-28T09:36:24;4.10;99.90
19928;DHT22;10126;50.876;4.470;2023-02-28T09:38:25;3.70;99.90
19928;DHT22;10126;50.876;4.470;2023-02-28T09:40:26;3.50;99.90
19928;DHT22;10126;50.876;4.470;2023-02-28T09:42:34;3.50;99.90
19928;DHT22;10126;50.876;4.470;2023-02-28T09:44:42;3.60;99.90
19928;DHT22;10126;50.876;4.470;2023-02-28T09:46:48;3.90;99.90
19928;DHT22;10126;50.876;4.470;2023-02-28T09:48:50;4.10;99.90
19928;DHT22;10126;50.876;4.470;2023-02-28T09:50:55;4.10;99.90
19928;DHT22;10126;50.876;4.470;2023-02-28T09:52:59;4.20;99.90
19928;DHT22;10126;50.876;4.470;2023-02-28T09:57:36;4.30;99.90
19928;DHT22;10126;50.876;4.470;2023-02-28T10:04:59;4.00;99.90
19928;DHT22;10126;50.876;4.470;2023-02-28T10:07:18;4.40;99.90
19928;DHT22;10126;50.876;4.470;2023-02-28T10:09:32;4.40;99.90
19928;DHT22;10126;50.876;4.470;2023-02-28T10:11:34;4.40;99.90
19928;DHT22;10126;50.876;4.470;2023-02-28T10:15:42;3.80;99.90
19928;DHT22;10126;50.876;4.470;2023-02-28T10:17:47;3.70;99.90
19928;DHT22;10126;50.876;4.470;2023-02-28T10:21:59;4.20;99.90
19928;DHT22;10126;50.876;4.470;2023-02-28T10:24:30;4.00;99.90
19928;DHT22;10126;50.876;4.470;2023-02-28T10:26:33;3.90;99.90
19928;DHT22;10126;50.876;4.470;2023-02-28T10:28:33;3.80;99.90
19928;DHT22;10126;50.876;4.470;2023-02-28T10:30:36;3.80;99.90
19928;DHT22;10126;50.876;4.470;2023-02-28T10:32:39;3.70;99.90
19928;DHT22;10126;50.876;4.470;2023-02-28T10:34:40;3.70;99.90
19928;DHT22;10126;50.876;4.470;2023-02-28T10:36:41;3.60;99.90
19928;DHT22;10126;50.876;4.470;2023-02-28T10:38:44;3.60;99.90
19928;DHT22;10126;50.876;4.470;2023-02-28T10:40:47;4.10;99.90
19928;DHT22;10126;50.876;4.470;2023-02-28T10:43:41;4.00;99.90
19928;DHT22;10126;50.876;4.470;2023-02-28T10:45:35;4.10;99.90
19928;DHT22;10126;50.876;4.470;2023-02-28T10:47:56;4.10;99.90
19928;DHT22;10126;50.876;4.470;2023-02-28T10:49:57;4.30;99.90
19928;DHT22;10126;50.876;4.470;2023-02-28T10:52:00;4.50;99.90
19928;DHT22;10126;50.876;4.470;2023-02-28T10:54:00;4.60;99.90
19928;DHT22;10126;50.876;4.470;2023-02-28T11:00:52;4.60;99.90
19928;DHT22;10126;50.876;4.470;2023-02-28T11:02:53;4.60;99.90
19928;DHT22;10126;50.876;4.470;2023-02-28T11:04:53;4.70;99.90
19928;DHT22;10126;50.876;4.470;2023-02-28T11:06:59;4.70;99.90
19928;DHT22;10126;50.876;4.470;2023-02-28T11:09:13;4.50;99.90
19928;DHT22;10126;50.876;4.470;2023-02-28T11:11:16;4.70;99.90
19928;DHT22;10126;50.876;4.470;2023-02-28T11:13:19;4.90;99.90
19928;DHT22;10126;50.876;4.470;2023-02-28T11:15:25;4.80;99.90
19928;DHT22;10126;50.876;4.470;2023-02-28T11:17:29;4.70;99.90
19928;DHT22;10126;50.876;4.470;2023-02-28T11:19:39;4.50;99.90
19928;DHT22;10126;50.876;4.470;2023-02-28T11:21:52;4.30;99.90
19928;DHT22;10126;50.876;4.470;2023-02-28T11:24:00;4.30;99.90
19928;DHT22;10126;50.876;4.470;2023-02-28T11:26:03;4.20;99.90
19928;DHT22;10126;50.876;4.470;2023-02-28T11:30:33;4.50;99.90
19928;DHT22;10126;50.876;4.470;2023-02-28T11:32:34;4.60;99.90
19928;DHT22;10126;50.876;4.470;2023-02-28T11:34:36;4.70;99.90
19928;DHT22;10126;50.876;4.470;2023-02-28T11:36:37;4.60;99.90
19928;DHT22;10126;50.876;4.470;2023-02-28T11:38:45;4.70;99.90
19928;DHT22;10126;50.876;4.470;2023-02-28T11:45:15;4.60;99.90
19928;DHT22;10126;50.876;4.470;2023-02-28T11:47:33;4.70;99.90
19928;DHT22;10126;50.876;4.470;2023-02-28T11:56:57;4.90;99.90
19928;DHT22;10126;50.876;4.470;2023-02-28T11:59:26;4.90;99.90
19928;DHT22;10126;50.876;4.470;2023-02-28T12:06:25;4.60;99.90
19928;DHT22;10126;50.876;4.470;2023-02-28T12:13:23;5.10;99.90
19928;DHT22;10126;50.876;4.470;2023-02-28T12:20:34;4.90;99.90
19928;DHT22;10126;50.876;4.470;2023-02-28T12:23:00;5.20;99.90
19928;DHT22;10126;50.876;4.470;2023-02-28T12:27:11;5.10;99.90
19928;DHT22;10126;50.876;4.470;2023-02-28T12:29:28;4.90;99.90
19928;DHT22;10126;50.876;4.470;2023-02-28T12:31:35;5.10;99.90
19928;DHT22;10126;50.876;4.470;2023-02-28T12:33:40;5.20;99.90
19928;DHT22;10126;50.876;4.470;2023-02-28T12:35:56;5.30;99.90
19928;DHT22;10126;50.876;4.470;2023-02-28T12:40:09;5.30;99.90
19928;DHT22;10126;50.876;4.470;2023-02-28T12:42:16;5.30;99.90
19928;DHT22;10126;50.876;4.470;2023-02-28T12:44:26;5.10;99.90
19928;DHT22;10126;50.876;4.470;2023-02-28T12:46:35;5.20;99.90
19928;DHT22;10126;50.876;4.470;2023-02-28T12:48:46;5.50;99.90
19928;DHT22;10126;50.876;4.470;2023-02-28T12:50:48;5.50;99.90
19928;DHT22;10126;50.876;4.470;2023-02-28T12:53:13;5.40;99.90
19928;DHT22;10126;50.876;4.470;2023-02-28T12:55:23;5.40;99.90
19928;DHT22;10126;50.876;4.470;2023-02-28T12:57:50;5.50;99.90
19928;DHT22;10126;50.876;4.470;2023-02-28T13:00:04;5.50;99.90
19928;DHT22;10126;50.876;4.470;2023-02-28T13:04:39;5.10;99.90
19928;DHT22;10126;50.876;4.470;2023-02-28T13:09:10;5.20;99.90
19928;DHT22;10126;50.876;4.470;2023-02-28T13:11:43;5.60;99.90
19928;DHT22;10126;50.876;4.470;2023-02-28T13:13:44;5.70;99.90
19928;DHT22;10126;50.876;4.470;2023-02-28T13:16:06;5.40;99.90
19928;DHT22;10126;50.876;4.470;2023-02-28T13:18:28;5.00;99.90
19928;DHT22;10126;50.876;4.470;2023-02-28T13:20:34;4.80;99.90
19928;DHT22;10126;50.876;4.470;2023-02-28T13:22:42;4.90;99.90
19928;DHT22;10126;50.876;4.470;2023-02-28T13:24:52;4.70;99.90
19928;DHT22;10126;50.876;4.470;2023-02-28T13:31:18;5.10;99.90
19928;DHT22;10126;50.876;4.470;2023-02-28T13:35:43;5.10;99.90
19928;DHT22;10126;50.876;4.470;2023-02-28T13:37:46;5.00;99.90
19928;DHT22;10126;50.876;4.470;2023-02-28T13:39:54;5.20;99.90
19928;DHT22;10126;50.876;4.470;2023-02-28T13:41:55;5.40;99.90
19928;DHT22;10126;50.876;4.470;2023-02-28T13:44:11;5.50;99.90
19928;DHT22;10126;50.876;4.470;2023-02-28T13:46:12;5.60;99.90
19928;DHT22;10126;50.876;4.470;2023-02-28T13:48:18;5.50;99.90
19928;DHT22;10126;50.876;4.470;2023-02-28T13:52:28;5.30;99.90
19928;DHT22;10126;50.876;4.470;2023-02-28T13:56:48;5.30;99.90
19928;DHT22;10126;50.876;4.470;2023-02-28T14:05:18;5.40;99.90
19928;DHT22;10126;50.876;4.470;2023-02-28T14:07:30;5.50;99.90
19928;DHT22;10126;50.876;4.470;2023-02-28T14:09:38;5.40;99.90
19928;DHT22;10126;50.876;4.470;2023-02-28T14:11:42;5.50;99.90
19928;DHT22;10126;50.876;4.470;2023-02-28T14:13:45;5.60;99.90
19928;DHT22;10126;50.876;4.470;2023-02-28T14:15:55;5.60;99.90
19928;DHT22;10126;50.876;4.470;2023-02-28T14:17:57;5.80;99.90
19928;DHT22;10126;50.876;4.470;2023-02-28T14:19:59;5.80;99.90
19928;DHT22;10126;50.876;4.470;2023-02-28T14:31:42;5.30;99.90
19928;DHT22;10126;50.876;4.470;2023-02-28T14:38:25;5.40;99.90
19928;DHT22;10126;50.876;4.470;2023-02-28T14:40:31;5.20;99.90
19928;DHT22;10126;50.876;4.470;2023-02-28T14:42:35;5.20;99.90
19928;DHT22;10126;50.876;4.470;2023-02-28T14:44:38;5.10;99.90
19928;DHT22;10126;50.876;4.470;2023-02-28T14:46:40;5.20;99.90
19928;DHT22;10126;50.876;4.470;2023-02-28T14:48:48;5.40;99.90
19928;DHT22;10126;50.876;4.470;2023-02-28T14:50:55;5.30;99.90
19928;DHT22;10126;50.876;4.470;2023-02-28T14:52:57;5.10;99.90
19928;DHT22;10126;50.876;4.470;2023-02-28T14:55:16;5.10;99.90
19928;DHT22;10126;50.876;4.470;2023-02-28T14:57:54;5.10;99.90
19928;DHT22;10126;50.876;4.470;2023-02-28T15:02:24;5.50;99.90
19928;DHT22;10126;50.876;4.470;2023-02-28T15:04:26;5.60;99.90
19928;DHT22;10126;50.876;4.470;2023-02-28T15:06:33;5.50;99.90
19928;DHT22;10126;50.876;4.470;2023-02-28T15:08:33;5.60;99.90
19928;DHT22;10126;50.876;4.470;2023-02-28T15:10:38;5.40;99.90
19928;DHT22;10126;50.876;4.470;2023-02-28T15:12:41;5.20;99.90
19928;DHT22;10126;50.876;4.470;2023-02-28T15:14:43;5.40;99.90
19928;DHT22;10126;50.876;4.470;2023-02-28T15:16:46;5.50;99.90
19928;DHT22;10126;50.876;4.470;2023-02-28T15:19:02;5.60;99.90
19928;DHT22;10126;50.876;4.470;2023-02-28T15:21:11;5.50;99.90
19928;DHT22;10126;50.876;4.470;2023-02-28T15:23:12;5.60;99.90
19928;DHT22;10126;50.876;4.470;2023-02-28T15:25:18;5.30;99.90
19928;DHT22;10126;50.876;4.470;2023-02-28T15:27:28;5.10;99.90